Time;durP1;ratioP1;P1;durP2;ratioP2;P2;SDS_P1;SDS_P2;PMS_P1;PMS_P2;Temp;Humidity;BMP_temperature;BMP_pressure;BME280_temperature;BME280_humidity;BME280_pressure;Samples;Min_cycle;Max_cycle;Signal;HPM_P1;HPM_P2
2021/07/25 00:00:17;;;;;;;14.02;9.23;;;23.30;60.00;;;;;;3560062;40;20033;-63
2021/07/25 00:02:43;;;;;;;12.10;9.45;;;23.20;59.70;;;;;;3560448;40;20042;-65
2021/07/25 00:05:09;;;;;;;12.75;9.73;;;23.10;60.10;;;;;;3559226;40;20081;-66
2021/07/25 00:07:35;;;;;;;12.35;9.20;;;23.10;60.10;;;;;;3559026;40;20434;-65
2021/07/25 00:10:05;;;;;;;12.40;9.10;;;23.10;61.10;;;;;;3559399;40;20172;-66
2021/07/25 00:12:31;;;;;;;13.75;9.60;;;23.00;59.10;;;;;;3559899;40;20092;-66
2021/07/25 00:14:57;;;;;;;12.32;8.70;;;23.00;60.80;;;;;;3559633;40;20029;-66
2021/07/25 00:17:22;;;;;;;11.93;9.48;;;22.90;61.10;;;;;;3560155;40;20022;-66
2021/07/25 00:19:49;;;;;;;12.80;9.88;;;22.90;61.50;;;;;;3560442;40;20045;-66
2021/07/25 00:22:14;;;;;;;14.02;10.02;;;22.90;61.40;;;;;;3561004;40;20045;-66
2021/07/25 00:24:48;;;;;;;11.80;9.48;;;22.80;62.00;;;;;;3560723;40;20034;-66
2021/07/25 00:27:14;;;;;;;12.70;10.10;;;22.80;60.40;;;;;;3559879;40;20255;-66
2021/07/25 00:29:40;;;;;;;11.13;8.95;;;22.80;61.30;;;;;;3560382;40;20419;-66
2021/07/25 00:32:10;;;;;;;14.05;9.77;;;22.70;61.50;;;;;;3560181;40;20132;-66
2021/07/25 00:34:36;;;;;;;12.27;9.77;;;22.70;61.60;;;;;;3561042;40;20041;-65
2021/07/25 00:37:02;;;;;;;12.68;9.95;;;22.60;61.60;;;;;;3561411;40;20036;-66
2021/07/25 00:39:27;;;;;;;11.85;9.25;;;22.60;61.80;;;;;;3562067;40;20162;-66
2021/07/25 00:41:54;;;;;;;12.70;9.75;;;22.60;62.10;;;;;;3562017;40;20517;-66
2021/07/25 00:44:20;;;;;;;13.77;9.52;;;22.60;62.20;;;;;;3561305;40;20045;-66
2021/07/25 00:46:53;;;;;;;11.77;9.70;;;22.50;61.70;;;;;;3561777;40;20717;-66
2021/07/25 00:49:18;;;;;;;12.85;10.15;;;22.50;62.30;;;;;;3560496;40;20040;-66
2021/07/25 00:51:44;;;;;;;11.63;9.85;;;22.40;62.60;;;;;;3561709;40;20053;-66
2021/07/25 00:54:12;;;;;;;13.55;10.07;;;22.40;61.60;;;;;;3561433;40;20041;-65
2021/07/25 00:56:38;;;;;;;14.77;10.13;;;22.40;62.60;;;;;;3561910;40;20069;-66
2021/07/25 00:59:04;;;;;;;11.65;9.75;;;22.30;61.50;;;;;;3561680;40;20018;-66
2021/07/25 01:01:30;;;;;;;11.88;9.18;;;22.30;62.80;;;;;;3561384;40;20037;-66
2021/07/25 01:04:34;;;;;;;14.27;10.20;;;22.30;61.60;;;;;;3561782;40;20419;-65
2021/07/25 01:07:29;;;;;;;13.32;9.95;;;22.30;62.60;;;;;;3560034;40;20029;-65
2021/07/25 01:10:13;;;;;;;14.63;10.10;;;22.30;62.90;;;;;;3558885;40;20159;-65
2021/07/25 01:13:07;;;;;;;12.45;9.77;;;22.20;63.00;;;;;;3561125;40;20049;-65
2021/07/25 01:15:34;;;;;;;16.17;10.15;;;22.20;61.20;;;;;;3557207;40;20391;-66
2021/07/25 01:18:00;;;;;;;11.75;9.65;;;22.20;62.70;;;;;;3560885;40;20056;-65
2021/07/25 01:20:26;;;;;;;12.07;9.77;;;22.20;62.70;;;;;;3561307;40;20471;-65
2021/07/25 01:22:55;;;;;;;13.40;10.32;;;22.20;63.00;;;;;;3561839;40;20032;-65
2021/07/25 01:25:23;;;;;;;13.52;9.88;;;22.20;61.20;;;;;;3561379;40;20722;-66
2021/07/25 01:28:10;;;;;;;13.77;9.70;;;22.20;62.20;;;;;;3561211;40;20045;-65
2021/07/25 01:30:39;;;;;;;16.17;10.10;;;22.20;62.40;;;;;;3560153;40;20038;-65
2021/07/25 01:33:20;;;;;;;13.23;9.93;;;22.20;62.50;;;;;;3561228;40;20037;-65
2021/07/25 01:35:48;;;;;;;11.75;9.75;;;22.10;63.00;;;;;;3559937;40;20108;-65
2021/07/25 01:38:14;;;;;;;14.00;9.45;;;22.10;62.50;;;;;;3561767;40;20025;-66
2021/07/25 01:40:40;;;;;;;14.75;10.10;;;22.10;61.90;;;;;;3560143;40;20025;-66
2021/07/25 01:43:09;;;;;;;12.52;9.82;;;22.10;62.50;;;;;;3560902;40;20037;-66
2021/07/25 01:45:35;;;;;;;13.05;10.20;;;22.10;63.40;;;;;;3560867;40;20057;-66
2021/07/25 01:48:01;;;;;;;13.88;10.52;;;22.10;62.20;;;;;;3561451;40;20044;-65
2021/07/25 01:50:27;;;;;;;14.05;9.90;;;22.10;62.50;;;;;;3560984;40;20013;-66
2021/07/25 01:52:53;;;;;;;12.13;9.85;;;22.10;63.30;;;;;;3561164;40;20032;-65
2021/07/25 01:55:18;;;;;;;14.10;10.25;;;22.10;63.20;;;;;;3561094;40;20096;-66
2021/07/25 01:57:44;;;;;;;14.02;9.88;;;22.00;62.30;;;;;;3551304;40;20045;-66
2021/07/25 02:00:10;;;;;;;12.65;9.82;;;22.00;62.60;;;;;;3560994;40;20059;-66
2021/07/25 02:02:36;;;;;;;15.00;9.52;;;22.00;62.80;;;;;;3560695;40;20025;-66
2021/07/25 02:05:05;;;;;;;12.57;10.30;;;22.00;62.70;;;;;;3550341;40;20029;-66
2021/07/25 02:07:30;;;;;;;13.07;10.82;;;22.00;62.80;;;;;;3561201;40;20045;-66
2021/07/25 02:09:56;;;;;;;14.57;10.00;;;22.00;62.20;;;;;;3560814;40;20029;-65
2021/07/25 02:12:22;;;;;;;12.55;10.40;;;22.00;61.10;;;;;;3561318;40;20018;-65
2021/07/25 02:14:47;;;;;;;12.68;9.88;;;21.90;62.70;;;;;;3561406;40;20053;-65
2021/07/25 02:17:13;;;;;;;13.27;10.60;;;21.90;63.50;;;;;;3559714;40;20025;-66
2021/07/25 02:19:39;;;;;;;14.15;10.23;;;21.90;64.50;;;;;;3561436;40;20092;-65
2021/07/25 02:22:05;;;;;;;16.50;9.98;;;21.90;64.80;;;;;;3562269;40;20134;-66
2021/07/25 02:24:31;;;;;;;13.07;9.98;;;21.80;64.20;;;;;;3561585;40;20095;-66
2021/07/25 02:26:57;;;;;;;16.40;10.43;;;21.80;64.00;;;;;;3559984;40;20045;-65
2021/07/25 02:29:23;;;;;;;11.52;9.77;;;21.70;64.30;;;;;;3561376;40;20041;-66
2021/07/25 02:31:48;;;;;;;13.18;10.27;;;21.70;64.40;;;;;;3561701;40;20105;-65
2021/07/25 02:34:14;;;;;;;14.18;9.77;;;21.60;64.50;;;;;;3560671;40;20025;-65
2021/07/25 02:36:40;;;;;;;14.90;10.25;;;21.60;64.60;;;;;;3561656;40;20075;-65
2021/07/25 02:39:06;;;;;;;13.40;10.40;;;21.50;64.60;;;;;;3561802;40;20057;-66
2021/07/25 02:41:32;;;;;;;12.35;10.05;;;21.50;64.80;;;;;;3561144;40;20097;-66
2021/07/25 02:43:58;;;;;;;12.82;10.25;;;21.50;65.60;;;;;;3561394;40;20029;-66
2021/07/25 02:46:23;;;;;;;16.80;10.38;;;21.50;65.20;;;;;;3561627;40;20636;-65
2021/07/25 02:48:49;;;;;;;12.95;10.23;;;21.50;64.90;;;;;;3558055;40;20119;-66
2021/07/25 02:51:14;;;;;;;15.35;11.10;;;21.50;64.80;;;;;;3561014;40;20055;-65
2021/07/25 02:53:40;;;;;;;15.38;10.40;;;21.50;64.80;;;;;;3560990;40;20311;-65
2021/07/25 02:56:06;;;;;;;12.80;10.20;;;21.50;64.40;;;;;;3560555;40;20370;-66
2021/07/25 02:58:31;;;;;;;14.07;10.40;;;21.40;64.80;;;;;;3561281;40;20468;-66
2021/07/25 03:00:57;;;;;;;13.25;10.07;;;21.40;65.00;;;;;;3561290;40;20040;-66
2021/07/25 03:03:23;;;;;;;14.63;10.25;;;21.40;65.60;;;;;;3560957;40;20421;-65
2021/07/25 03:05:49;;;;;;;13.93;10.65;;;21.40;65.00;;;;;;3561185;40;20107;-65
2021/07/25 03:08:14;;;;;;;13.50;10.68;;;21.40;65.30;;;;;;3560271;40;20037;-66
2021/07/25 03:10:41;;;;;;;14.05;10.25;;;21.40;65.00;;;;;;3560913;40;20044;-66
2021/07/25 03:13:07;;;;;;;14.48;10.55;;;21.40;64.10;;;;;;3560841;40;20135;-65
2021/07/25 03:15:33;;;;;;;14.07;10.85;;;21.40;64.50;;;;;;3561026;40;20042;-69
2021/07/25 03:17:59;;;;;;;14.00;10.20;;;21.40;65.20;;;;;;3559415;40;20303;-67
2021/07/25 03:20:26;;;;;;;16.02;10.65;;;21.50;64.80;;;;;;3560667;40;20704;-66
2021/07/25 03:22:52;;;;;;;15.05;10.60;;;21.50;64.90;;;;;;3561055;40;20128;-66
2021/07/25 03:25:18;;;;;;;13.18;10.40;;;21.50;65.10;;;;;;3558726;40;20032;-65
2021/07/25 03:27:44;;;;;;;14.48;10.32;;;21.60;65.20;;;;;;3560343;40;20025;-66
2021/07/25 03:30:10;;;;;;;12.55;9.82;;;21.60;62.40;;;;;;3560596;40;20714;-66
2021/07/25 03:32:35;;;;;;;12.65;9.65;;;21.60;63.10;;;;;;3559834;40;20077;-66
2021/07/25 03:35:01;;;;;;;12.30;9.93;;;21.60;63.70;;;;;;3561098;40;20376;-65
2021/07/25 03:37:27;;;;;;;14.18;11.10;;;21.70;64.10;;;;;;3558968;40;20034;-66
2021/07/25 03:39:54;;;;;;;14.15;9.90;;;21.70;62.80;;;;;;3560617;40;20922;-66
2021/07/25 03:42:20;;;;;;;12.80;10.38;;;21.70;62.80;;;;;;3560138;40;20034;-66
2021/07/25 03:44:46;;;;;;;13.30;10.10;;;21.70;63.40;;;;;;3560001;40;20402;-66
2021/07/25 03:47:14;;;;;;;13.75;10.27;;;21.80;63.40;;;;;;3561060;40;20053;-65
2021/07/25 03:49:41;;;;;;;13.73;10.27;;;21.80;63.80;;;;;;3560509;40;20038;-67
2021/07/25 03:52:07;;;;;;;12.40;9.82;;;21.80;64.20;;;;;;3561015;40;20052;-66
2021/07/25 03:54:34;;;;;;;14.25;9.60;;;21.80;64.40;;;;;;3560933;40;20060;-67
2021/07/25 03:57:00;;;;;;;13.05;10.63;;;21.80;63.90;;;;;;3560096;40;20110;-66
2021/07/25 03:59:26;;;;;;;13.27;10.40;;;21.80;62.80;;;;;;3560051;40;20022;-66
2021/07/25 04:01:52;;;;;;;13.52;10.18;;;21.80;63.60;;;;;;3560271;40;20044;-66
2021/07/25 04:04:17;;;;;;;11.73;9.63;;;21.70;63.70;;;;;;3560155;40;20034;-66
2021/07/25 04:06:43;;;;;;;13.95;10.20;;;21.70;63.60;;;;;;3559992;40;20038;-66
2021/07/25 04:09:09;;;;;;;11.45;9.55;;;21.70;63.90;;;;;;3561657;40;20138;-66
2021/07/25 04:11:34;;;;;;;12.82;9.57;;;21.70;64.40;;;;;;3561702;40;20073;-66
2021/07/25 04:14:00;;;;;;;14.32;10.30;;;21.80;64.80;;;;;;3561687;40;20036;-66
2021/07/25 04:16:26;;;;;;;13.80;9.88;;;21.80;64.40;;;;;;3561382;40;20038;-66
2021/07/25 04:18:51;;;;;;;12.65;9.73;;;21.80;64.20;;;;;;3562101;40;20025;-66
2021/07/25 04:21:17;;;;;;;12.40;9.85;;;21.90;64.50;;;;;;3561670;40;20041;-66
2021/07/25 04:23:43;;;;;;;12.70;10.10;;;21.90;65.00;;;;;;3561837;40;20034;-66
2021/07/25 04:26:09;;;;;;;13.75;9.50;;;21.90;64.20;;;;;;3562028;40;20041;-66
2021/07/25 04:28:35;;;;;;;12.07;9.73;;;21.90;64.10;;;;;;3561002;40;20449;-66
2021/07/25 04:31:02;;;;;;;15.98;10.40;;;21.90;64.40;;;;;;3561764;40;20061;-66
2021/07/25 04:33:29;;;;;;;13.68;10.43;;;21.90;63.80;;;;;;3562477;40;20033;-66
2021/07/25 04:35:56;;;;;;;13.38;10.20;;;21.90;64.80;;;;;;3562271;40;20037;-64
2021/07/25 04:38:22;;;;;;;12.88;9.82;;;21.90;64.60;;;;;;3562831;40;20112;-64
2021/07/25 04:41:00;;;;;;;17.45;10.35;;;22.00;63.80;;;;;;3560531;40;20053;-64
2021/07/25 04:43:29;;;;;;;13.70;10.38;;;22.00;64.50;;;;;;3560673;40;20038;-63
2021/07/25 04:46:03;;;;;;;14.30;10.15;;;22.10;65.00;;;;;;3561171;40;20616;-64
2021/07/25 04:48:50;;;;;;;15.27;10.73;;;22.10;63.10;;;;;;3561189;40;20037;-64
2021/07/25 04:51:18;;;;;;;14.07;10.65;;;22.20;64.10;;;;;;3560484;40;20041;-64
2021/07/25 04:53:44;;;;;;;17.00;11.00;;;22.20;64.40;;;;;;3561743;40;20629;-64
2021/07/25 04:56:13;;;;;;;14.00;10.18;;;22.30;64.10;;;;;;3561540;40;20029;-63
2021/07/25 04:58:52;;;;;;;14.07;9.93;;;22.40;64.40;;;;;;3557034;40;20045;-64
2021/07/25 05:01:24;;;;;;;18.55;10.68;;;22.40;64.20;;;;;;3561587;40;20057;-63
2021/07/25 05:03:51;;;;;;;13.38;10.35;;;22.50;64.00;;;;;;3559176;40;20029;-64
2021/07/25 05:06:17;;;;;;;16.33;10.82;;;22.50;64.20;;;;;;3561179;40;20029;-64
2021/07/25 05:08:43;;;;;;;16.58;11.27;;;22.50;62.60;;;;;;3561528;40;20049;-64
2021/07/25 05:11:17;;;;;;;13.80;10.32;;;22.50;63.00;;;;;;3560925;40;20036;-64
2021/07/25 05:13:46;;;;;;;15.25;11.13;;;22.50;62.60;;;;;;3561439;40;20076;-64
2021/07/25 05:16:22;;;;;;;14.48;10.82;;;22.50;62.30;;;;;;3561602;40;20022;-64
2021/07/25 05:19:01;;;;;;;14.77;10.88;;;22.50;62.90;;;;;;3559892;40;20045;-65
2021/07/25 05:21:33;;;;;;;13.80;11.10;;;22.60;62.20;;;;;;3559966;40;20041;-64
2021/07/25 05:24:02;;;;;;;14.85;10.88;;;22.60;62.00;;;;;;3561740;40;20096;-64
2021/07/25 05:26:28;;;;;;;13.68;11.40;;;22.60;62.20;;;;;;3561387;40;20070;-64
2021/07/25 05:28:56;;;;;;;13.35;10.95;;;22.60;62.90;;;;;;3561712;40;20029;-64
2021/07/25 05:31:32;;;;;;;12.98;11.20;;;22.60;62.60;;;;;;3559831;40;20105;-64
2021/07/25 05:33:58;;;;;;;16.45;12.43;;;22.60;63.10;;;;;;3561865;40;20029;-64
2021/07/25 05:36:24;;;;;;;18.05;12.35;;;22.60;62.20;;;;;;3561772;40;20669;-63
2021/07/25 05:38:51;;;;;;;14.57;10.85;;;22.70;63.50;;;;;;3560134;40;20072;-64
2021/07/25 05:41:16;;;;;;;14.02;10.68;;;22.70;63.20;;;;;;3561507;40;20022;-64
2021/07/25 05:43:42;;;;;;;14.07;10.48;;;22.80;62.30;;;;;;3560281;40;20045;-64
2021/07/25 05:46:08;;;;;;;14.55;10.75;;;22.80;61.40;;;;;;3560649;40;20052;-64
2021/07/25 05:48:33;;;;;;;14.38;10.48;;;22.90;62.50;;;;;;3561808;40;20034;-63
2021/07/25 05:51:02;;;;;;;13.18;10.52;;;23.00;61.90;;;;;;3561781;40;20631;-65
2021/07/25 05:53:32;;;;;;;17.40;11.18;;;23.00;62.30;;;;;;3562003;40;20025;-65
2021/07/25 05:55:58;;;;;;;14.43;10.63;;;23.10;62.50;;;;;;3559657;40;20103;-65
2021/07/25 05:58:25;;;;;;;14.73;10.73;;;23.10;62.40;;;;;;3559647;40;20037;-66
2021/07/25 06:00:52;;;;;;;14.02;10.60;;;23.10;60.90;;;;;;3560035;40;20041;-66
2021/07/25 06:03:17;;;;;;;13.70;10.90;;;23.10;61.70;;;;;;3559934;40;20132;-66
2021/07/25 06:05:43;;;;;;;15.63;11.45;;;23.10;62.10;;;;;;3560984;40;20026;-66
2021/07/25 06:08:09;;;;;;;16.58;11.18;;;23.10;62.00;;;;;;3559938;40;20432;-67
2021/07/25 06:10:40;;;;;;;16.63;11.32;;;23.10;62.50;;;;;;3560866;40;20018;-66
2021/07/25 06:13:06;;;;;;;15.27;11.35;;;23.10;63.40;;;;;;3561545;40;20572;-66
2021/07/25 06:15:33;;;;;;;13.95;11.02;;;23.10;63.90;;;;;;3561128;40;20053;-67
2021/07/25 06:18:01;;;;;;;17.15;10.82;;;23.10;63.90;;;;;;3560860;40;20045;-66
2021/07/25 06:20:28;;;;;;;15.82;11.60;;;23.20;64.40;;;;;;3561673;40;20030;-66
2021/07/25 06:22:55;;;;;;;23.08;11.38;;;23.20;64.40;;;;;;3551406;40;20034;-67
2021/07/25 06:25:23;;;;;;;15.82;11.88;;;23.10;65.50;;;;;;3561120;40;20190;-66
2021/07/25 06:27:52;;;;;;;13.05;10.88;;;23.10;66.80;;;;;;3552233;40;20055;-66
2021/07/25 06:30:20;;;;;;;13.45;11.55;;;23.10;66.20;;;;;;3561241;40;20118;-66
2021/07/25 06:33:00;;;;;;;16.85;11.10;;;23.20;66.40;;;;;;3561650;40;20034;-66
2021/07/25 06:35:32;;;;;;;13.25;11.23;;;23.20;65.70;;;;;;3560550;40;20032;-66
2021/07/25 06:38:19;;;;;;;14.85;11.70;;;23.30;66.90;;;;;;3559960;40;20044;-63
2021/07/25 06:40:50;;;;;;;15.88;12.25;;;23.40;65.40;;;;;;3560995;40;20121;-65
2021/07/25 06:43:17;;;;;;;13.95;11.25;;;23.50;64.80;;;;;;3560446;40;20022;-64
2021/07/25 06:45:43;;;;;;;14.93;10.98;;;23.60;65.50;;;;;;3561345;40;20576;-64
2021/07/25 06:48:25;;;;;;;14.55;11.70;;;23.70;61.60;;;;;;3561005;40;20107;-66
2021/07/25 06:50:53;;;;;;;14.50;11.07;;;23.70;62.40;;;;;;3559671;40;20511;-66
2021/07/25 06:53:21;;;;;;;17.92;11.23;;;23.70;62.40;;;;;;3561210;40;20034;-63
2021/07/25 06:55:51;;;;;;;14.70;11.15;;;23.80;63.00;;;;;;3561326;40;20048;-64
2021/07/25 06:58:18;;;;;;;12.85;10.65;;;23.90;61.50;;;;;;3560732;40;20113;-64
2021/07/25 07:00:44;;;;;;;13.35;11.10;;;24.00;61.70;;;;;;3561153;40;20493;-63
2021/07/25 07:03:10;;;;;;;13.43;11.63;;;24.10;61.50;;;;;;3561477;40;20033;-64
2021/07/25 07:05:35;;;;;;;15.57;11.93;;;24.20;61.90;;;;;;3559868;40;20393;-64
2021/07/25 07:08:06;;;;;;;15.43;11.75;;;24.30;61.20;;;;;;3559664;40;20422;-64
2021/07/25 07:10:35;;;;;;;15.38;11.70;;;24.40;59.60;;;;;;3561131;40;20438;-63
2021/07/25 07:13:08;;;;;;;14.45;11.30;;;24.40;60.20;;;;;;3561582;40;20048;-64
2021/07/25 07:15:36;;;;;;;19.30;11.32;;;24.50;59.90;;;;;;3560959;40;20398;-64
2021/07/25 07:18:03;;;;;;;16.70;11.25;;;24.60;59.60;;;;;;3560736;40;20071;-67
2021/07/25 07:20:29;;;;;;;17.00;11.82;;;24.60;59.90;;;;;;3561300;40;20398;-66
2021/07/25 07:23:00;;;;;;;13.52;10.65;;;24.70;60.40;;;;;;3560585;40;20073;-66
2021/07/25 07:25:28;;;;;;;16.20;10.88;;;24.80;59.40;;;;;;3559613;40;20307;-66
2021/07/25 07:27:54;;;;;;;16.13;10.85;;;24.80;58.60;;;;;;3560909;40;20037;-66
2021/07/25 07:30:21;;;;;;;19.77;12.13;;;24.80;58.90;;;;;;3560909;40;20021;-67
2021/07/25 07:32:47;;;;;;;13.57;10.80;;;24.90;59.60;;;;;;3561133;40;20037;-66
2021/07/25 07:35:13;;;;;;;16.10;11.13;;;25.00;58.60;;;;;;3561210;40;20037;-66
2021/07/25 07:37:39;;;;;;;14.10;11.57;;;25.10;58.60;;;;;;3560910;40;20029;-66
2021/07/25 07:40:06;;;;;;;13.88;11.55;;;25.10;59.60;;;;;;3561078;40;20041;-66
2021/07/25 07:42:32;;;;;;;16.27;11.57;;;25.20;59.00;;;;;;3559830;40;20065;-66
2021/07/25 07:44:58;;;;;;;15.20;11.30;;;25.30;58.50;;;;;;3560510;40;20066;-67
2021/07/25 07:47:24;;;;;;;15.88;11.70;;;25.30;57.80;;;;;;3560461;40;20044;-66
2021/07/25 07:49:50;;;;;;;13.20;11.10;;;25.30;58.20;;;;;;3560296;40;20408;-67
2021/07/25 07:52:16;;;;;;;13.93;11.20;;;25.40;57.90;;;;;;3559869;40;20045;-66
2021/07/25 07:54:42;;;;;;;16.02;11.57;;;25.60;58.10;;;;;;3560708;40;20127;-66
2021/07/25 07:57:08;;;;;;;11.77;10.55;;;25.60;57.60;;;;;;3560562;40;20578;-67
2021/07/25 07:59:33;;;;;;;16.15;11.63;;;25.70;57.40;;;;;;3560481;40;20062;-67
2021/07/25 08:01:59;;;;;;;15.10;11.65;;;25.80;57.10;;;;;;3560872;40;20033;-66
2021/07/25 08:04:25;;;;;;;17.45;11.77;;;25.80;58.10;;;;;;3560779;40;20045;-69
2021/07/25 08:06:51;;;;;;;16.90;11.80;;;25.80;56.40;;;;;;3560591;40;20037;-67
2021/07/25 08:09:17;;;;;;;14.95;12.43;;;25.90;57.40;;;;;;3560601;40;20030;-69
2021/07/25 08:11:45;;;;;;;16.33;10.93;;;26.00;57.30;;;;;;3560741;40;20029;-67
2021/07/25 08:14:17;;;;;;;17.23;11.93;;;26.20;56.90;;;;;;3560382;40;20066;-67
2021/07/25 08:16:42;;;;;;;13.98;10.93;;;26.40;56.80;;;;;;3560716;40;20028;-67
2021/07/25 08:19:09;;;;;;;14.00;11.10;;;26.40;55.70;;;;;;3559532;40;20030;-66
2021/07/25 08:21:36;;;;;;;14.90;11.52;;;26.60;55.60;;;;;;3559266;40;20041;-69
2021/07/25 08:24:02;;;;;;;14.13;11.13;;;26.70;55.80;;;;;;3560723;40;20104;-67
2021/07/25 08:26:28;;;;;;;12.98;11.10;;;26.70;55.40;;;;;;3560543;40;20750;-67
2021/07/25 08:28:54;;;;;;;14.52;11.60;;;26.80;56.20;;;;;;3560691;40;20033;-67
2021/07/25 08:31:19;;;;;;;13.82;11.20;;;26.80;54.70;;;;;;3560556;40;20037;-66
2021/07/25 08:33:45;;;;;;;12.18;10.80;;;26.80;55.50;;;;;;3560609;40;20040;-65
2021/07/25 08:36:11;;;;;;;12.93;10.35;;;26.90;55.10;;;;;;3561005;40;20888;-66
2021/07/25 08:38:37;;;;;;;14.68;11.10;;;27.10;54.50;;;;;;3560451;40;20042;-66
2021/07/25 08:41:02;;;;;;;16.75;11.27;;;27.20;54.60;;;;;;3559299;40;20137;-66
2021/07/25 08:43:36;;;;;;;12.57;10.82;;;27.20;54.10;;;;;;3560658;40;20123;-66
2021/07/25 08:46:18;;;;;;;15.35;11.35;;;27.20;55.00;;;;;;3558265;40;20403;-67
2021/07/25 08:48:50;;;;;;;13.10;11.00;;;27.30;55.10;;;;;;3560345;40;20590;-67
2021/07/25 08:51:23;;;;;;;14.32;10.85;;;27.40;54.70;;;;;;3559773;40;20037;-67
2021/07/25 08:54:04;;;;;;;13.00;10.45;;;27.40;54.20;;;;;;3561231;40;20080;-66
2021/07/25 08:56:32;;;;;;;12.60;10.75;;;27.40;53.60;;;;;;3560309;40;20022;-66
2021/07/25 08:59:05;;;;;;;13.43;10.70;;;27.40;54.80;;;;;;3561607;40;20025;-67
2021/07/25 09:01:39;;;;;;;12.45;10.23;;;27.50;54.90;;;;;;3561709;40;20034;-66
2021/07/25 09:04:05;;;;;;;14.30;10.63;;;27.60;54.40;;;;;;3562109;40;20058;-66
2021/07/25 09:06:43;;;;;;;15.98;10.90;;;27.70;53.10;;;;;;3561446;40;20037;-65
2021/07/25 09:09:09;;;;;;;14.07;11.20;;;27.80;52.60;;;;;;3561559;40;20069;-66
2021/07/25 09:11:36;;;;;;;14.75;10.90;;;28.10;53.50;;;;;;3561552;40;20429;-69
2021/07/25 09:14:03;;;;;;;13.32;11.35;;;28.20;53.10;;;;;;3559751;40;20041;-64
2021/07/25 09:16:31;;;;;;;12.38;11.07;;;28.30;53.20;;;;;;3561284;40;20325;-65
2021/07/25 09:18:57;;;;;;;13.82;11.00;;;28.50;53.00;;;;;;3560750;40;20017;-65
2021/07/25 09:21:47;;;;;;;13.40;10.15;;;28.60;52.10;;;;;;3561956;40;20046;-65
2021/07/25 09:24:19;;;;;;;12.30;9.68;;;28.70;52.10;;;;;;3561899;40;20040;-65
2021/07/25 09:26:50;;;;;;;12.75;10.23;;;28.70;52.00;;;;;;3561446;40;20064;-64
2021/07/25 09:29:17;;;;;;;14.32;9.93;;;28.70;51.60;;;;;;3561085;40;20168;-65
2021/07/25 09:31:42;;;;;;;12.57;9.73;;;28.70;51.20;;;;;;3561184;40;20036;-64
2021/07/25 09:34:08;;;;;;;14.30;10.38;;;28.70;50.00;;;;;;3561969;40;20021;-64
2021/07/25 09:36:36;;;;;;;13.77;10.35;;;28.60;50.50;;;;;;3561047;40;20037;-65
2021/07/25 09:39:04;;;;;;;12.25;10.05;;;28.60;51.80;;;;;;3557674;40;20170;-65
2021/07/25 09:41:32;;;;;;;14.68;11.27;;;28.70;52.70;;;;;;3561247;40;20069;-66
2021/07/25 09:44:12;;;;;;;18.95;10.50;;;28.60;51.30;;;;;;3561205;40;20054;-66
2021/07/25 09:46:43;;;;;;;15.52;10.95;;;28.50;51.90;;;;;;3560011;40;20151;-65
2021/07/25 09:49:09;;;;;;;12.27;10.98;;;28.60;52.10;;;;;;3560582;40;20053;-66
2021/07/25 09:51:34;;;;;;;14.50;11.50;;;28.60;52.10;;;;;;3560221;40;20025;-65
2021/07/25 09:54:05;;;;;;;14.55;11.23;;;28.60;53.70;;;;;;3560143;40;20029;-66
2021/07/25 09:56:32;;;;;;;12.30;11.00;;;28.60;52.30;;;;;;3559182;40;20794;-66
2021/07/25 09:58:59;;;;;;;14.55;10.70;;;28.60;52.60;;;;;;3560521;40;20038;-70
2021/07/25 10:01:39;;;;;;;13.68;10.50;;;28.60;53.30;;;;;;3559359;40;20349;-66
2021/07/25 10:04:18;;;;;;;12.15;10.02;;;28.70;53.50;;;;;;3560794;40;20029;-66
2021/07/25 10:06:46;;;;;;;12.70;9.88;;;28.80;51.60;;;;;;3560254;40;20038;-66
2021/07/25 10:09:19;;;;;;;11.63;9.73;;;28.90;50.80;;;;;;3561450;40;20127;-66
2021/07/25 10:11:58;;;;;;;11.88;9.52;;;29.00;51.10;;;;;;3564424;40;20060;-65
2021/07/25 10:14:26;;;;;;;14.50;9.60;;;29.10;51.00;;;;;;3560422;40;20805;-66
2021/07/25 10:16:53;;;;;;;12.90;9.45;;;29.10;50.10;;;;;;3561112;40;20041;-66
2021/07/25 10:19:38;;;;;;;10.75;9.50;;;29.30;50.20;;;;;;3561756;40;20036;-65
2021/07/25 10:22:12;;;;;;;12.52;9.27;;;29.30;48.20;;;;;;3561376;40;20333;-65
2021/07/25 10:24:40;;;;;;;10.98;9.05;;;29.30;48.70;;;;;;3560959;40;20327;-65
2021/07/25 10:27:05;;;;;;;10.15;8.85;;;29.30;49.50;;;;;;3561419;40;20721;-64
2021/07/25 10:29:32;;;;;;;13.02;10.13;;;29.40;49.40;;;;;;3559281;40;20127;-64
2021/07/25 10:32:00;;;;;;;11.65;9.13;;;29.40;49.20;;;;;;3559577;40;20122;-64
2021/07/25 10:34:30;;;;;;;13.07;9.52;;;29.50;49.70;;;;;;3560053;40;20033;-65
2021/07/25 10:36:55;;;;;;;11.68;9.88;;;29.40;48.60;;;;;;3560798;40;20068;-65
2021/07/25 10:39:24;;;;;;;12.70;9.27;;;29.50;48.70;;;;;;3559811;40;20042;-64
2021/07/25 10:41:52;;;;;;;15.10;10.82;;;29.40;47.10;;;;;;3561101;40;20034;-63
2021/07/25 10:44:18;;;;;;;12.23;10.85;;;29.30;49.30;;;;;;3560783;40;20653;-64
2021/07/25 10:46:44;;;;;;;13.55;10.25;;;29.10;49.40;;;;;;3559351;40;20046;-65
2021/07/25 10:49:15;;;;;;;12.40;10.18;;;29.10;50.00;;;;;;3561660;40;20041;-65
2021/07/25 10:52:00;;;;;;;18.50;10.43;;;29.20;49.90;;;;;;3559745;40;20073;-65
2021/07/25 10:54:26;;;;;;;14.75;11.20;;;29.40;49.30;;;;;;3563458;40;20484;-65
2021/07/25 10:57:04;;;;;;;10.98;9.88;;;29.40;49.00;;;;;;3563079;40;20088;-64
2021/07/25 10:59:46;;;;;;;12.13;10.07;;;29.30;50.10;;;;;;3562264;40;20063;-65
2021/07/25 11:02:50;;;;;;;11.82;9.60;;;29.30;50.60;;;;;;3559026;40;20041;-67
2021/07/25 11:05:17;;;;;;;13.40;10.38;;;29.20;51.70;;;;;;3559661;40;20766;-67
2021/07/25 11:07:56;;;;;;;11.15;9.95;;;29.10;52.00;;;;;;3560068;40;20134;-67
2021/07/25 11:10:33;;;;;;;11.05;9.52;;;29.10;51.10;;;;;;3558896;40;20625;-64
2021/07/25 11:13:01;;;;;;;11.00;9.30;;;29.30;51.40;;;;;;3558825;40;20052;-65
2021/07/25 11:15:33;;;;;;;13.38;9.88;;;29.40;49.60;;;;;;3560844;40;20674;-67
2021/07/25 11:18:07;;;;;;;13.38;9.27;;;29.50;49.50;;;;;;3560984;40;20080;-67
2021/07/25 11:20:52;;;;;;;11.25;10.02;;;29.70;49.10;;;;;;3564143;40;20062;-67
2021/07/25 11:23:20;;;;;;;11.90;10.40;;;29.80;49.00;;;;;;3561672;40;20036;-67
2021/07/25 11:25:48;;;;;;;11.93;9.80;;;29.60;48.50;;;;;;3561210;40;20037;-67
2021/07/25 11:28:38;;;;;;;11.80;9.32;;;29.60;49.00;;;;;;3559892;40;20033;-67
2021/07/25 11:31:08;;;;;;;12.05;9.10;;;29.80;48.40;;;;;;3560675;40;20307;-67
2021/07/25 11:33:43;;;;;;;10.30;9.30;;;29.90;47.90;;;;;;3559885;40;20049;-67
2021/07/25 11:36:15;;;;;;;10.57;8.98;;;30.00;48.10;;;;;;3560839;40;20044;-67
2021/07/25 11:38:42;;;;;;;13.88;10.27;;;30.10;48.30;;;;;;3560760;40;20041;-67
2021/07/25 11:41:09;;;;;;;17.33;9.70;;;30.10;47.30;;;;;;3560786;40;20083;-67
2021/07/25 11:43:53;;;;;;;13.63;10.55;;;30.10;46.80;;;;;;3560448;40;20106;-67
2021/07/25 11:46:25;;;;;;;13.55;11.00;;;30.10;46.90;;;;;;3560625;40;20073;-66
2021/07/25 11:49:09;;;;;;;12.68;9.90;;;30.00;47.70;;;;;;3560508;40;20060;-67
2021/07/25 11:51:37;;;;;;;13.35;9.20;;;30.00;47.70;;;;;;3560816;40;20057;-66
2021/07/25 11:54:03;;;;;;;11.65;9.05;;;30.00;47.20;;;;;;3560474;40;20030;-67
2021/07/25 11:56:30;;;;;;;14.52;10.75;;;30.00;49.30;;;;;;3560499;40;20025;-67
2021/07/25 11:59:07;;;;;;;12.13;8.68;;;30.10;49.40;;;;;;3561173;40;20049;-67
2021/07/25 12:01:35;;;;;;;11.48;8.82;;;30.20;48.70;;;;;;3560564;40;20029;-67
2021/07/25 12:04:41;;;;;;;12.38;9.60;;;30.30;47.30;;;;;;3560924;40;20045;-67
2021/07/25 12:07:15;;;;;;;11.40;8.93;;;30.40;47.60;;;;;;3527469;40;20047;-67
2021/07/25 12:09:49;;;;;;;10.25;8.80;;;30.40;48.60;;;;;;3556596;40;20041;-67
2021/07/25 12:12:21;;;;;;;11.75;10.50;;;30.30;49.90;;;;;;3559253;40;20034;-67
2021/07/25 12:14:47;;;;;;;11.77;9.55;;;30.20;49.00;;;;;;3560495;40;20026;-67
2021/07/25 12:17:52;;;;;;;11.90;9.88;;;30.10;49.70;;;;;;3560202;40;20077;-67
2021/07/25 12:20:18;;;;;;;12.38;9.30;;;30.00;49.20;;;;;;3559335;40;20037;-67
2021/07/25 12:22:50;;;;;;;13.90;9.55;;;30.10;48.70;;;;;;3559685;40;20458;-67
2021/07/25 12:25:17;;;;;;;12.55;10.00;;;30.30;49.30;;;;;;3552448;40;20038;-67
2021/07/25 12:27:42;;;;;;;12.25;9.27;;;30.20;48.70;;;;;;3560714;40;20062;-68
2021/07/25 12:30:15;;;;;;;11.38;10.10;;;30.20;50.60;;;;;;3561804;40;20037;-67
2021/07/25 12:32:42;;;;;;;11.57;10.35;;;30.20;49.80;;;;;;3562160;40;20029;-67
2021/07/25 12:35:11;;;;;;;14.95;9.95;;;30.10;49.50;;;;;;3561680;40;20640;-67
2021/07/25 12:37:48;;;;;;;12.77;9.82;;;30.10;50.00;;;;;;3560842;40;20127;-68
2021/07/25 12:40:20;;;;;;;11.05;9.52;;;30.10;50.90;;;;;;3561793;40;20033;-69